createdAt,value
2016-07-23T00:00:53.945Z,1159.18
2016-07-23T00:01:53.949Z,1159.21
2016-07-23T00:02:53.943Z,1159.24
2016-07-23T00:03:53.964Z,1159.28
2016-07-23T00:04:53.971Z,1159.32
2016-07-23T00:05:53.961Z,1159.3
2016-07-23T00:06:53.956Z,1159.27
2016-07-23T00:07:54.004Z,1159.33
2016-07-23T00:08:53.952Z,1159.27
2016-07-23T00:09:53.971Z,1159.26
2016-07-23T00:10:54.019Z,1159.23
2016-07-23T00:11:53.948Z,1159.18
2016-07-23T00:12:53.971Z,1159.15
2016-07-23T00:13:53.979Z,1159.14
2016-07-23T00:14:53.971Z,1159.11
2016-07-23T00:15:53.957Z,1159.11
2016-07-23T00:16:53.968Z,1159.04
2016-07-23T00:17:53.972Z,1159
2016-07-23T00:18:53.972Z,1158.97
2016-07-23T00:19:53.960Z,1158.96
2016-07-23T00:20:53.968Z,1158.95
2016-07-23T00:21:53.975Z,1158.97
2016-07-23T00:22:53.973Z,1158.98
2016-07-23T00:23:53.974Z,1159.06
2016-07-23T00:24:53.992Z,1159.09
2016-07-23T00:25:53.973Z,1159.1
2016-07-23T00:26:53.981Z,1159.21
2016-07-23T00:27:53.980Z,1159.28
2016-07-23T00:28:53.976Z,1159.3
2016-07-23T00:29:54.000Z,1159.38
2016-07-23T00:30:54.002Z,1159.38
2016-07-23T00:31:53.972Z,1159.47
2016-07-23T00:32:53.973Z,1159.52
2016-07-23T00:33:53.976Z,1159.55
2016-07-23T00:34:53.982Z,1159.54
2016-07-23T00:35:53.976Z,1159.58
2016-07-23T00:36:53.991Z,1159.63
2016-07-23T00:37:53.990Z,1159.71
2016-07-23T00:38:53.996Z,1159.71
2016-07-23T00:39:54.006Z,1159.71
2016-07-23T00:40:54.001Z,1159.77
2016-07-23T00:41:53.990Z,1159.8
2016-07-23T00:42:54.007Z,1159.79
2016-07-23T00:43:54.011Z,1159.85
2016-07-23T00:44:54.002Z,1159.83
2016-07-23T00:45:54.005Z,1159.81
2016-07-23T00:46:54.011Z,1159.83
2016-07-23T00:47:53.984Z,1159.86
2016-07-23T00:48:54.004Z,1159.89
2016-07-23T00:49:53.991Z,1159.89
2016-07-23T00:50:54.004Z,1159.94
2016-07-23T00:51:53.993Z,1159.91
2016-07-23T00:52:53.998Z,1159.94
2016-07-23T00:53:54.008Z,1159.96
2016-07-23T00:54:54.003Z,1159.94
2016-07-23T00:55:53.988Z,1160
2016-07-23T00:56:54.003Z,1159.98
2016-07-23T00:57:54.004Z,1160.01
2016-07-23T00:58:54.011Z,1160.06
2016-07-23T00:59:54.005Z,1159.98
2016-07-23T01:00:54.015Z,1160.01
2016-07-23T01:01:54.005Z,1160.02
2016-07-23T01:02:54.009Z,1160.03
2016-07-23T01:03:54.006Z,1160.05
2016-07-23T01:04:54.006Z,1160.01
2016-07-23T01:05:54.009Z,1159.99
2016-07-23T01:06:54.006Z,1159.99
2016-07-23T01:07:54.035Z,1159.99
2016-07-23T01:08:54.018Z,1159.96
2016-07-23T01:09:54.026Z,1159.93
2016-07-23T01:10:54.017Z,1159.92
2016-07-23T01:11:54.008Z,1159.93
2016-07-23T01:12:54.015Z,1159.89
2016-07-23T01:13:54.022Z,1159.85
2016-07-23T01:14:54.019Z,1159.86
2016-07-23T01:15:54.037Z,1159.86
2016-07-23T01:16:54.035Z,1159.85
2016-07-23T01:17:54.023Z,1159.86
2016-07-23T01:18:54.034Z,1159.86
2016-07-23T01:19:54.041Z,1159.86
2016-07-23T01:20:54.043Z,1159.88
2016-07-23T01:21:54.034Z,1159.92
2016-07-23T01:22:54.036Z,1159.98
2016-07-23T01:23:54.037Z,1159.96
2016-07-23T01:24:54.028Z,1159.94
2016-07-23T01:25:54.024Z,1160
2016-07-23T01:26:54.027Z,1159.98
2016-07-23T01:27:54.033Z,1160
2016-07-23T01:28:54.034Z,1159.98
2016-07-23T01:29:54.034Z,1160.08
2016-07-23T01:30:54.039Z,1160.02
2016-07-23T01:31:54.025Z,1160.01
2016-07-23T01:32:54.041Z,1159.99
2016-07-23T01:33:54.048Z,1160.04
2016-07-23T01:34:54.052Z,1160.01
2016-07-23T01:35:54.039Z,1160.04
2016-07-23T01:36:54.038Z,1160.1
2016-07-23T01:37:54.041Z,1160.08
2016-07-23T01:38:54.050Z,1160.11
2016-07-23T01:39:54.040Z,1160.09
2016-07-23T01:40:54.065Z,1160.12
2016-07-23T01:41:54.054Z,1160.14
2016-07-23T01:42:54.043Z,1160.13
2016-07-23T01:43:54.068Z,1160.13
2016-07-23T01:44:54.066Z,1160.11
2016-07-23T01:45:54.055Z,1160.09
2016-07-23T01:46:54.062Z,1160.09
2016-07-23T01:47:54.085Z,1160.1
2016-07-23T01:48:54.070Z,1160.05
2016-07-23T01:49:56.702Z,1160.07
2016-07-23T01:50:54.060Z,1160.08
2016-07-23T01:51:54.066Z,1160.07
2016-07-23T01:52:54.055Z,1160.06
2016-07-23T01:53:54.066Z,1160.08
2016-07-23T01:54:54.056Z,1160.04
2016-07-23T01:55:54.054Z,1160.08
2016-07-23T01:56:54.069Z,1160.05
2016-07-23T01:57:54.064Z,1160.03
2016-07-23T01:58:54.070Z,1160.03
2016-07-23T01:59:54.052Z,1160.04
2016-07-23T02:00:54.052Z,1160.05
2016-07-23T02:01:54.054Z,1160.01
2016-07-23T02:02:54.069Z,1160.02
2016-07-23T02:03:54.069Z,1160.05
2016-07-23T02:04:54.062Z,1160.04
2016-07-23T02:05:54.070Z,1160.1
2016-07-23T02:06:54.076Z,1160.07
2016-07-23T02:07:54.069Z,1160.13
2016-07-23T02:08:54.076Z,1160.11
2016-07-23T02:09:54.073Z,1160.14
2016-07-23T02:10:54.069Z,1160.13
2016-07-23T02:11:54.083Z,1160.13
2016-07-23T02:12:54.070Z,1160.17
2016-07-23T02:13:54.080Z,1160.22
2016-07-23T02:14:54.073Z,1160.23
2016-07-23T02:15:54.086Z,1160.25
2016-07-23T02:16:54.075Z,1160.27
2016-07-23T02:17:54.081Z,1160.27
2016-07-23T02:18:54.070Z,1160.25
2016-07-23T02:19:54.100Z,1160.28
2016-07-23T02:20:54.075Z,1160.31
2016-07-23T02:21:54.083Z,1160.34
2016-07-23T02:22:54.105Z,1160.33
2016-07-23T02:23:54.075Z,1160.31
2016-07-23T02:24:54.084Z,1160.3
2016-07-23T02:25:54.100Z,1160.3
2016-07-23T02:26:54.100Z,1160.31
2016-07-23T02:27:54.098Z,1160.35
2016-07-23T02:28:54.090Z,1160.36
2016-07-23T02:29:54.115Z,1160.34
2016-07-23T02:30:54.098Z,1160.37
2016-07-23T02:31:54.090Z,1160.39
2016-07-23T02:32:54.098Z,1160.36
2016-07-23T02:33:54.106Z,1160.39
2016-07-23T02:34:54.100Z,1160.38
2016-07-23T02:35:54.100Z,1160.39
2016-07-23T02:36:54.091Z,1160.39
2016-07-23T02:37:54.101Z,1160.38
2016-07-23T02:38:54.106Z,1160.47
2016-07-23T02:39:54.098Z,1160.48
2016-07-23T02:40:54.102Z,1160.48
2016-07-23T02:41:54.097Z,1160.51
2016-07-23T02:42:54.127Z,1160.48
2016-07-23T02:43:54.132Z,1160.51
2016-07-23T02:44:54.099Z,1160.48
2016-07-23T02:45:54.106Z,1160.51
2016-07-23T02:46:54.110Z,1160.53
2016-07-23T02:47:54.129Z,1160.52
2016-07-23T02:48:54.116Z,1160.55
2016-07-23T02:49:54.102Z,1160.54
2016-07-23T02:50:54.111Z,1160.59
2016-07-23T02:51:54.105Z,1160.63
2016-07-23T02:52:54.107Z,1160.57
2016-07-23T02:53:54.164Z,1160.54
2016-07-23T02:54:54.130Z,1160.56
2016-07-23T02:55:54.123Z,1160.58
2016-07-23T02:56:54.107Z,1160.57
2016-07-23T02:57:54.119Z,1160.56
2016-07-23T02:58:54.126Z,1160.58
2016-07-23T02:59:54.132Z,1160.53
2016-07-23T03:00:54.121Z,1160.55
2016-07-23T03:01:54.114Z,1160.54
2016-07-23T03:02:54.129Z,1160.58
2016-07-23T03:03:54.123Z,1160.59
2016-07-23T03:04:54.129Z,1160.57
2016-07-23T03:05:54.111Z,1160.56
2016-07-23T03:06:54.113Z,1160.63
2016-07-23T03:07:54.131Z,1160.64
2016-07-23T03:08:54.132Z,1160.62
2016-07-23T03:09:54.117Z,1160.65
2016-07-23T03:10:54.131Z,1160.66
2016-07-23T03:11:54.122Z,1160.66
2016-07-23T03:12:54.129Z,1160.7
2016-07-23T03:13:54.134Z,1160.7
2016-07-23T03:14:54.129Z,1160.72
2016-07-23T03:15:54.136Z,1160.78
2016-07-23T03:16:54.138Z,1160.78
2016-07-23T03:17:54.138Z,1160.76
2016-07-23T03:18:54.161Z,1160.76
2016-07-23T03:19:54.139Z,1160.77
2016-07-23T03:20:54.145Z,1160.82
2016-07-23T03:21:54.132Z,1160.8
2016-07-23T03:22:54.145Z,1160.81
2016-07-23T03:23:54.146Z,1160.86
2016-07-23T03:24:54.132Z,1160.86
2016-07-23T03:25:54.160Z,1160.83
2016-07-23T03:26:54.136Z,1160.89
2016-07-23T03:27:54.133Z,1160.9
2016-07-23T03:28:54.142Z,1160.95
2016-07-23T03:29:54.161Z,1160.96
2016-07-23T03:30:54.146Z,1160.95
2016-07-23T03:31:54.159Z,1160.98
2016-07-23T03:32:54.162Z,1160.96
2016-07-23T03:33:54.161Z,1160.99
2016-07-23T03:34:54.164Z,1160.99
2016-07-23T03:35:54.140Z,1160.88
2016-07-23T03:36:54.147Z,1160.94
2016-07-23T03:37:54.159Z,1160.93
2016-07-23T03:38:54.161Z,1160.94
2016-07-23T03:39:54.171Z,1160.91
2016-07-23T03:40:54.160Z,1160.89
2016-07-23T03:41:54.149Z,1160.88
2016-07-23T03:42:54.161Z,1160.87
2016-07-23T03:43:54.150Z,1160.86
2016-07-23T03:44:54.162Z,1160.84
2016-07-23T03:45:54.162Z,1160.83
2016-07-23T03:46:54.158Z,1160.82
2016-07-23T03:47:54.163Z,1160.78
2016-07-23T03:48:54.168Z,1160.76
2016-07-23T03:49:54.161Z,1160.81
2016-07-23T03:50:54.168Z,1160.77
2016-07-23T03:51:54.162Z,1160.79
2016-07-23T03:52:55.182Z,1160.81
2016-07-23T03:53:54.162Z,1160.78
2016-07-23T03:54:54.167Z,1160.78
2016-07-23T03:55:54.175Z,1160.77
2016-07-23T03:56:54.172Z,1160.78
2016-07-23T03:57:54.171Z,1160.8
2016-07-23T03:58:54.168Z,1160.84
2016-07-23T03:59:54.165Z,1160.82
2016-07-23T04:00:54.174Z,1160.86
2016-07-23T04:01:54.178Z,1160.83
2016-07-23T04:02:54.172Z,1160.8
2016-07-23T04:03:54.198Z,1160.83
2016-07-23T04:04:54.175Z,1160.82
2016-07-23T04:05:54.187Z,1160.84
2016-07-23T04:06:54.174Z,1160.8
2016-07-23T04:07:54.182Z,1160.77
2016-07-23T04:08:54.175Z,1160.85
2016-07-23T04:09:54.185Z,1160.79
2016-07-23T04:10:54.186Z,1160.8
2016-07-23T04:11:54.185Z,1160.78
2016-07-23T04:12:54.206Z,1160.75
2016-07-23T04:13:54.171Z,1160.73
2016-07-23T04:14:54.187Z,1160.72
2016-07-23T04:15:54.194Z,1160.71
2016-07-23T04:16:54.181Z,1160.74
2016-07-23T04:17:54.180Z,1160.72
2016-07-23T04:18:54.183Z,1160.69
2016-07-23T04:19:54.190Z,1160.68
2016-07-23T04:20:54.186Z,1160.63
2016-07-23T04:21:54.195Z,1160.56
2016-07-23T04:22:54.200Z,1160.5
2016-07-23T04:23:54.196Z,1160.44
2016-07-23T04:24:54.191Z,1160.4
2016-07-23T04:25:54.194Z,1160.34
2016-07-23T04:26:54.193Z,1160.25
2016-07-23T04:27:54.196Z,1160.18
2016-07-23T04:28:54.194Z,1160.04
2016-07-23T04:29:54.195Z,1160.02
2016-07-23T04:30:54.194Z,1159.97
2016-07-23T04:31:54.197Z,1159.91
2016-07-23T04:32:54.189Z,1159.84
2016-07-23T04:33:54.208Z,1159.74
2016-07-23T04:34:54.199Z,1159.67
2016-07-23T04:35:54.234Z,1159.55
2016-07-23T04:36:54.223Z,1159.47
2016-07-23T04:37:54.205Z,1159.34
2016-07-23T04:38:54.224Z,1159.24
2016-07-23T04:39:54.227Z,1159.11
2016-07-23T04:40:54.227Z,1159
2016-07-23T04:41:54.211Z,1158.85
2016-07-23T04:42:54.217Z,1158.78
2016-07-23T04:43:54.205Z,1158.64
2016-07-23T04:44:54.215Z,1158.49
2016-07-23T04:45:54.225Z,1158.29
2016-07-23T04:46:54.212Z,1158.14
2016-07-23T04:47:54.228Z,1157.98
2016-07-23T04:48:54.284Z,1157.72
2016-07-23T04:49:54.218Z,1157.53
2016-07-23T04:50:54.213Z,1157.24
2016-07-23T04:51:54.214Z,1156.9
2016-07-23T04:52:54.219Z,1156.53
2016-07-23T04:53:54.226Z,1156.17
2016-07-23T04:54:54.233Z,1155.74
2016-07-23T04:55:54.231Z,1155.34
2016-07-23T04:56:54.227Z,1154.94
2016-07-23T04:57:54.236Z,1154.47
2016-07-23T04:58:54.231Z,1154.09
2016-07-23T04:59:54.230Z,1153.73
2016-07-23T05:00:54.237Z,1153.24
2016-07-23T05:01:54.228Z,1152.78
2016-07-23T05:02:54.233Z,1152.17
2016-07-23T05:03:54.230Z,1151.59
2016-07-23T05:04:54.230Z,1151.14
2016-07-23T05:05:54.257Z,1150.54
2016-07-23T05:06:54.236Z,1149.92
2016-07-23T05:07:54.242Z,1149.39
2016-07-23T05:08:54.216Z,1148.7
2016-07-23T05:09:54.261Z,1147.93
2016-07-23T05:10:54.249Z,1147.34
2016-07-23T05:11:54.257Z,1146.89
2016-07-23T05:12:54.226Z,1146.16
2016-07-23T05:13:54.243Z,1145.5
2016-07-23T05:14:54.240Z,1144.82
2016-07-23T05:15:54.239Z,1143.91
2016-07-23T05:16:54.242Z,1143.09
2016-07-23T05:17:54.240Z,1142.04
2016-07-23T05:18:54.255Z,1141.2
2016-07-23T05:19:54.236Z,1140.34
2016-07-23T05:20:54.257Z,1139.54
2016-07-23T05:21:54.246Z,1138.71
2016-07-23T05:22:54.252Z,1137.8
2016-07-23T05:23:54.258Z,1136.9
2016-07-23T05:24:54.852Z,1136.17
2016-07-23T05:25:54.314Z,1135.71
2016-07-23T05:26:54.319Z,1135.08
2016-07-23T05:27:54.286Z,1134.32
2016-07-23T05:28:54.251Z,1133.65
2016-07-23T05:29:54.259Z,1132.92
2016-07-23T05:30:54.261Z,1132.52
2016-07-23T05:31:54.254Z,1132.2
2016-07-23T05:32:54.261Z,1131.64
2016-07-23T05:33:54.258Z,1131.19
2016-07-23T05:34:54.276Z,1130.58
2016-07-23T05:35:54.257Z,1130.11
2016-07-23T05:36:54.274Z,1129.56
2016-07-23T05:37:54.270Z,1129.26
2016-07-23T05:38:54.259Z,1129.28
2016-07-23T05:39:54.267Z,1129.32
2016-07-23T05:40:54.276Z,1129
2016-07-23T05:41:54.273Z,1128.47
2016-07-23T05:42:54.278Z,1128.03
2016-07-23T05:43:54.287Z,1127.63
2016-07-23T05:44:54.276Z,1127.08
2016-07-23T05:45:54.295Z,1126.75
2016-07-23T05:46:54.297Z,1125.95
2016-07-23T05:47:54.295Z,1124.89
2016-07-23T05:48:54.292Z,1123.76
2016-07-23T05:49:54.296Z,1122.7
2016-07-23T05:50:54.350Z,1121.35
2016-07-23T05:51:54.345Z,1120.22
2016-07-23T05:52:54.787Z,1120.07
2016-07-23T05:53:54.301Z,1117.94
2016-07-23T05:54:54.302Z,1116.95
2016-07-23T05:55:54.289Z,1115.84
2016-07-23T05:56:54.287Z,1114.87
2016-07-23T05:57:54.290Z,1113.66
2016-07-23T05:58:54.289Z,1112.44
2016-07-23T05:59:54.290Z,1111.14
2016-07-23T06:00:54.299Z,1109.43
2016-07-23T06:01:54.288Z,1107.58
2016-07-23T06:02:54.320Z,1105.86
2016-07-23T06:03:54.298Z,1104.28
2016-07-23T06:04:54.296Z,1102.75
2016-07-23T06:05:54.309Z,1100.93
2016-07-23T06:06:54.296Z,1099.05
2016-07-23T06:07:54.308Z,1096.98
2016-07-23T06:08:54.304Z,1094.92
2016-07-23T06:09:54.305Z,1093.78
2016-07-23T06:10:54.295Z,1093.15
2016-07-23T06:11:54.292Z,1092.28
2016-07-23T06:12:54.319Z,1091.18
2016-07-23T06:13:54.303Z,1090.19
2016-07-23T06:14:54.310Z,1088.84
2016-07-23T06:15:54.326Z,1087.16
